sensor_id;sensor_type;location;lat;lon;timestamp;pressure;altitude;pressure_sealevel;temperature;humidity
7474;BME280;3778;42.572;23.426;2023-01-19T00:01:59;94199.28;;;-146.70;40.67
7474;BME280;3778;42.572;23.426;2023-01-19T00:04:25;94220.13;;;-146.70;41.10
7474;BME280;3778;42.572;23.426;2023-01-19T00:06:52;94203.47;;;-146.70;41.30
7474;BME280;3778;42.572;23.426;2023-01-19T00:09:19;94230.53;;;-146.70;41.31
7474;BME280;3778;42.572;23.426;2023-01-19T00:11:46;94180.53;;;-146.70;40.86
7474;BME280;3778;42.572;23.426;2023-01-19T00:14:13;94155.53;;;-146.70;40.96
7474;BME280;3778;42.572;23.426;2023-01-19T00:16:41;94180.53;;;-146.70;41.29
7474;BME280;3778;42.572;23.426;2023-01-19T00:19:07;94180.53;;;-146.70;41.38
7474;BME280;3778;42.572;23.426;2023-01-19T00:21:34;94199.28;;;-146.70;41.26
7474;BME280;3778;42.572;23.426;2023-01-19T00:24:01;94232.63;;;-146.70;41.33
7474;BME280;3778;42.572;23.426;2023-01-19T00:26:27;94236.78;;;-146.70;41.14
7474;BME280;3778;42.572;23.426;2023-01-19T00:28:55;94184.69;;;-146.70;41.01
7474;BME280;3778;42.572;23.426;2023-01-19T00:31:21;94220.13;;;-146.70;41.02
7474;BME280;3778;42.572;23.426;2023-01-19T00:33:50;94213.88;;;-146.70;41.18
7474;BME280;3778;42.572;23.426;2023-01-19T00:36:17;94215.97;;;-146.70;41.20
7474;BME280;3778;42.572;23.426;2023-01-19T00:38:44;94222.22;;;-146.70;41.64
7474;BME280;3778;42.572;23.426;2023-01-19T00:41:11;94215.97;;;-146.70;41.00
7474;BME280;3778;42.572;23.426;2023-01-19T00:43:37;94180.53;;;-146.70;41.08
7474;BME280;3778;42.572;23.426;2023-01-19T00:46:03;94213.88;;;-146.70;41.02
7474;BME280;3778;42.572;23.426;2023-01-19T00:48:30;94245.13;;;-146.70;41.36
7474;BME280;3778;42.572;23.426;2023-01-19T00:50:58;94190.94;;;-146.70;40.57
7474;BME280;3778;42.572;23.426;2023-01-19T00:53:25;94222.22;;;-146.70;40.45
7474;BME280;3778;42.572;23.426;2023-01-19T00:55:53;94161.78;;;-146.70;40.15
7474;BME280;3778;42.572;23.426;2023-01-19T00:58:20;94163.88;;;-146.70;40.09
7474;BME280;3778;42.572;23.426;2023-01-19T01:00:47;94205.53;;;-146.70;40.21
7474;BME280;3778;42.572;23.426;2023-01-19T01:03:14;94178.44;;;-146.70;40.19
7474;BME280;3778;42.572;23.426;2023-01-19T01:05:41;94211.78;;;-146.70;40.49
7474;BME280;3778;42.572;23.426;2023-01-19T01:08:09;94193.03;;;-146.70;40.19
7474;BME280;3778;42.572;23.426;2023-01-19T01:10:36;94184.69;;;-146.70;40.10
7474;BME280;3778;42.572;23.426;2023-01-19T01:13:02;94228.47;;;-146.70;39.99
7474;BME280;3778;42.572;23.426;2023-01-19T01:15:29;94186.78;;;-146.70;40.03
7474;BME280;3778;42.572;23.426;2023-01-19T01:17:56;94128.44;;;-146.70;39.59
7474;BME280;3778;42.572;23.426;2023-01-19T01:20:24;94153.44;;;-146.70;39.41
7474;BME280;3778;42.572;23.426;2023-01-19T01:22:53;94161.78;;;-146.70;39.68
7474;BME280;3778;42.572;23.426;2023-01-19T01:25:24;94182.63;;;-146.70;39.51
7474;BME280;3778;42.572;23.426;2023-01-19T01:27:51;94170.13;;;-146.70;39.79
7474;BME280;3778;42.572;23.426;2023-01-19T01:30:19;94165.94;;;-146.70;39.62
7474;BME280;3778;42.572;23.426;2023-01-19T01:32:46;94165.94;;;-146.70;39.40
7474;BME280;3778;42.572;23.426;2023-01-19T01:35:12;94165.94;;;-146.70;39.20
7474;BME280;3778;42.572;23.426;2023-01-19T01:37:39;94174.28;;;-146.70;39.35
7474;BME280;3778;42.572;23.426;2023-01-19T01:40:08;94140.94;;;-146.70;39.18
7474;BME280;3778;42.572;23.426;2023-01-19T01:42:37;94161.78;;;-146.70;39.13
7474;BME280;3778;42.572;23.426;2023-01-19T01:45:22;94157.63;;;-146.70;39.15
7474;BME280;3778;42.572;23.426;2023-01-19T01:47:52;94122.19;;;-146.70;39.10
7474;BME280;3778;42.572;23.426;2023-01-19T01:50:22;94184.69;;;-146.70;39.13
7474;BME280;3778;42.572;23.426;2023-01-19T01:52:51;94178.44;;;-146.70;39.04
7474;BME280;3778;42.572;23.426;2023-01-19T01:55:21;94184.69;;;-146.70;39.14
7474;BME280;3778;42.572;23.426;2023-01-19T01:57:53;94147.19;;;-146.70;38.89
7474;BME280;3778;42.572;23.426;2023-01-19T02:00:22;94140.94;;;-146.70;38.94
7474;BME280;3778;42.572;23.426;2023-01-19T02:02:49;94149.28;;;-146.70;38.97
7474;BME280;3778;42.572;23.426;2023-01-19T02:05:21;94159.69;;;-146.70;38.82
7474;BME280;3778;42.572;23.426;2023-01-19T02:07:54;94159.69;;;-146.70;38.10
7474;BME280;3778;42.572;23.426;2023-01-19T02:10:41;94120.09;;;-146.70;38.21
7474;BME280;3778;42.572;23.426;2023-01-19T02:13:27;94109.69;;;-146.70;38.19
7474;BME280;3778;42.572;23.426;2023-01-19T02:15:56;94151.38;;;-146.70;37.83
7474;BME280;3778;42.572;23.426;2023-01-19T02:18:26;94111.78;;;-146.70;37.89
7474;BME280;3778;42.572;23.426;2023-01-19T02:20:58;94124.28;;;-146.70;37.70
7474;BME280;3778;42.572;23.426;2023-01-19T02:23:37;94122.19;;;-146.70;37.72
7474;BME280;3778;42.572;23.426;2023-01-19T02:26:06;94170.13;;;-146.70;37.66
7474;BME280;3778;42.572;23.426;2023-01-19T02:28:35;94168.03;;;-146.70;37.82
7474;BME280;3778;42.572;23.426;2023-01-19T02:31:04;94153.44;;;-146.70;37.75
7474;BME280;3778;42.572;23.426;2023-01-19T02:33:31;94109.69;;;-146.70;37.07
7474;BME280;3778;42.572;23.426;2023-01-19T02:35:58;94105.53;;;-146.70;37.07
7474;BME280;3778;42.572;23.426;2023-01-19T02:38:26;94107.59;;;-146.70;37.13
7474;BME280;3778;42.572;23.426;2023-01-19T02:40:57;94155.53;;;-146.70;37.47
7474;BME280;3778;42.572;23.426;2023-01-19T02:43:26;94099.28;;;-146.70;37.36
7474;BME280;3778;42.572;23.426;2023-01-19T02:45:54;94086.75;;;-146.70;37.46
7474;BME280;3778;42.572;23.426;2023-01-19T02:48:21;94086.75;;;-146.70;37.52
7474;BME280;3778;42.572;23.426;2023-01-19T02:50:49;94107.59;;;-146.70;37.10
7474;BME280;3778;42.572;23.426;2023-01-19T02:53:45;94107.59;;;-146.70;37.07
7474;BME280;3778;42.572;23.426;2023-01-19T02:56:35;94120.09;;;-146.70;37.10
7474;BME280;3778;42.572;23.426;2023-01-19T02:59:12;94109.69;;;-146.70;37.22
7474;BME280;3778;42.572;23.426;2023-01-19T03:01:51;94122.19;;;-146.70;37.22
7474;BME280;3778;42.572;23.426;2023-01-19T03:04:27;94130.53;;;-146.70;37.15
7474;BME280;3778;42.572;23.426;2023-01-19T03:07:03;94153.44;;;-146.70;37.19
7474;BME280;3778;42.572;23.426;2023-01-19T03:09:40;94097.19;;;-146.70;37.05
7474;BME280;3778;42.572;23.426;2023-01-19T03:12:13;94136.78;;;-146.70;37.05
7474;BME280;3778;42.572;23.426;2023-01-19T03:14:46;94157.63;;;-146.70;37.25
7474;BME280;3778;42.572;23.426;2023-01-19T03:17:16;94145.09;;;-146.70;37.14
7474;BME280;3778;42.572;23.426;2023-01-19T03:19:46;94143.03;;;-146.70;37.36
7474;BME280;3778;42.572;23.426;2023-01-19T03:22:16;94170.13;;;-146.70;36.93
7474;BME280;3778;42.572;23.426;2023-01-19T03:24:45;94065.94;;;-146.70;37.10
7474;BME280;3778;42.572;23.426;2023-01-19T03:27:18;94157.63;;;-146.70;36.89
7474;BME280;3778;42.572;23.426;2023-01-19T03:29:50;94130.53;;;-146.70;37.18
7474;BME280;3778;42.572;23.426;2023-01-19T03:32:20;94149.28;;;-146.70;36.86
7474;BME280;3778;42.572;23.426;2023-01-19T03:34:49;94149.28;;;-146.70;36.73
7474;BME280;3778;42.572;23.426;2023-01-19T03:37:18;94172.19;;;-146.70;37.21
7474;BME280;3778;42.572;23.426;2023-01-19T03:39:46;94168.03;;;-146.70;37.31
7474;BME280;3778;42.572;23.426;2023-01-19T03:42:15;94163.88;;;-146.70;37.24
7474;BME280;3778;42.572;23.426;2023-01-19T03:44:43;94197.19;;;-146.70;37.56
7474;BME280;3778;42.572;23.426;2023-01-19T03:47:14;94157.63;;;-146.70;37.18
7474;BME280;3778;42.572;23.426;2023-01-19T03:49:43;94188.88;;;-146.70;37.54
7474;BME280;3778;42.572;23.426;2023-01-19T03:52:11;94203.47;;;-146.70;37.55
7474;BME280;3778;42.572;23.426;2023-01-19T03:54:39;94207.63;;;-146.70;37.69
7474;BME280;3778;42.572;23.426;2023-01-19T03:57:06;94157.63;;;-146.70;37.98
7474;BME280;3778;42.572;23.426;2023-01-19T03:59:34;94165.94;;;-146.70;37.85
7474;BME280;3778;42.572;23.426;2023-01-19T04:02:01;94197.19;;;-146.70;37.82
7474;BME280;3778;42.572;23.426;2023-01-19T04:04:27;94182.63;;;-146.70;37.85
7474;BME280;3778;42.572;23.426;2023-01-19T04:06:54;94195.13;;;-146.70;37.63
7474;BME280;3778;42.572;23.426;2023-01-19T04:09:22;94218.03;;;-146.70;37.49
7474;BME280;3778;42.572;23.426;2023-01-19T04:11:49;94182.63;;;-146.70;37.84
7474;BME280;3778;42.572;23.426;2023-01-19T04:14:15;94188.88;;;-146.70;37.53
7474;BME280;3778;42.572;23.426;2023-01-19T04:16:43;94157.63;;;-146.70;37.16
7474;BME280;3778;42.572;23.426;2023-01-19T04:19:10;94176.38;;;-146.70;37.29
7474;BME280;3778;42.572;23.426;2023-01-19T04:21:37;94159.69;;;-146.70;37.12
7474;BME280;3778;42.572;23.426;2023-01-19T04:24:04;94218.03;;;-146.70;37.59
7474;BME280;3778;42.572;23.426;2023-01-19T04:26:31;94251.38;;;-146.70;37.54
7474;BME280;3778;42.572;23.426;2023-01-19T04:28:58;94182.63;;;-146.70;37.15
7474;BME280;3778;42.572;23.426;2023-01-19T04:31:24;94195.13;;;-146.70;37.50
7474;BME280;3778;42.572;23.426;2023-01-19T04:33:54;94220.13;;;-146.70;37.84
7474;BME280;3778;42.572;23.426;2023-01-19T04:36:21;94228.47;;;-146.70;37.78
7474;BME280;3778;42.572;23.426;2023-01-19T04:38:48;94236.78;;;-146.70;37.13
7474;BME280;3778;42.572;23.426;2023-01-19T04:41:14;94190.94;;;-146.70;37.09
7474;BME280;3778;42.572;23.426;2023-01-19T04:43:41;94211.78;;;-146.70;37.52
7474;BME280;3778;42.572;23.426;2023-01-19T04:46:08;94228.47;;;-146.70;37.74
7474;BME280;3778;42.572;23.426;2023-01-19T04:48:34;94255.56;;;-146.70;37.84
7474;BME280;3778;42.572;23.426;2023-01-19T04:51:02;94263.88;;;-146.70;38.00
7474;BME280;3778;42.572;23.426;2023-01-19T04:53:29;94282.63;;;-146.70;38.65
7474;BME280;3778;42.572;23.426;2023-01-19T04:55:56;94293.06;;;-146.70;39.22
7474;BME280;3778;42.572;23.426;2023-01-19T04:58:24;94311.81;;;-146.70;39.72
7474;BME280;3778;42.572;23.426;2023-01-19T05:00:51;94322.22;;;-146.70;39.19
7474;BME280;3778;42.572;23.426;2023-01-19T05:03:17;94328.47;;;-146.70;39.59
7474;BME280;3778;42.572;23.426;2023-01-19T05:05:44;94370.16;;;-146.70;40.35
7474;BME280;3778;42.572;23.426;2023-01-19T05:08:12;94401.41;;;-146.70;41.17
7474;BME280;3778;42.572;23.426;2023-01-19T05:10:39;94391.00;;;-146.70;40.83
7474;BME280;3778;42.572;23.426;2023-01-19T05:13:06;94395.16;;;-146.70;41.56
7474;BME280;3778;42.572;23.426;2023-01-19T05:15:32;94436.84;;;-146.70;41.52
7474;BME280;3778;42.572;23.426;2023-01-19T05:17:59;94416.00;;;-146.70;41.14
7474;BME280;3778;42.572;23.426;2023-01-19T05:20:26;94376.41;;;-146.70;41.35
7474;BME280;3778;42.572;23.426;2023-01-19T05:22:52;94416.00;;;-146.70;41.79
7474;BME280;3778;42.572;23.426;2023-01-19T05:25:20;94461.84;;;-146.70;42.45
7474;BME280;3778;42.572;23.426;2023-01-19T05:27:47;94447.25;;;-146.70;41.99
7474;BME280;3778;42.572;23.426;2023-01-19T05:30:14;94445.19;;;-146.70;42.25
7474;BME280;3778;42.572;23.426;2023-01-19T05:32:41;94453.50;;;-146.70;43.13
7474;BME280;3778;42.572;23.426;2023-01-19T05:35:08;94493.09;;;-146.70;42.82
7474;BME280;3778;42.572;23.426;2023-01-19T05:37:35;94507.69;;;-146.70;43.22
7474;BME280;3778;42.572;23.426;2023-01-19T05:40:02;94488.94;;;-146.70;43.45
7474;BME280;3778;42.572;23.426;2023-01-19T05:42:30;94547.28;;;-146.70;43.14
7474;BME280;3778;42.572;23.426;2023-01-19T05:44:57;94503.53;;;-146.70;43.06
7474;BME280;3778;42.572;23.426;2023-01-19T05:47:25;94528.53;;;-146.70;43.60
7474;BME280;3778;42.572;23.426;2023-01-19T05:49:54;94553.53;;;-146.70;43.73
7474;BME280;3778;42.572;23.426;2023-01-19T05:52:20;94538.94;;;-146.70;43.28
7474;BME280;3778;42.572;23.426;2023-01-19T05:54:49;94593.13;;;-146.70;44.70
7474;BME280;3778;42.572;23.426;2023-01-19T05:57:16;94593.13;;;-146.70;44.65
7474;BME280;3778;42.572;23.426;2023-01-19T05:59:44;94580.63;;;-146.70;43.11
7474;BME280;3778;42.572;23.426;2023-01-19T06:02:10;94532.69;;;-146.70;43.77
7474;BME280;3778;42.572;23.426;2023-01-19T06:04:37;94530.63;;;-146.70;44.00
7474;BME280;3778;42.572;23.426;2023-01-19T06:07:04;94520.19;;;-146.70;43.77
7474;BME280;3778;42.572;23.426;2023-01-19T06:09:31;94559.78;;;-146.70;43.56
7474;BME280;3778;42.572;23.426;2023-01-19T06:11:58;94570.22;;;-146.70;44.12
7474;BME280;3778;42.572;23.426;2023-01-19T06:14:24;94532.69;;;-146.70;44.03
7474;BME280;3778;42.572;23.426;2023-01-19T06:16:52;94582.72;;;-146.70;43.85
7474;BME280;3778;42.572;23.426;2023-01-19T06:19:19;94526.44;;;-146.70;44.89
7474;BME280;3778;42.572;23.426;2023-01-19T06:21:47;94557.72;;;-146.70;44.43
7474;BME280;3778;42.572;23.426;2023-01-19T06:24:16;94580.63;;;-146.70;44.29
7474;BME280;3778;42.572;23.426;2023-01-19T06:26:43;94593.13;;;-146.70;44.78
7474;BME280;3778;42.572;23.426;2023-01-19T06:29:10;94559.78;;;-146.70;44.56
7474;BME280;3778;42.572;23.426;2023-01-19T06:31:38;94595.22;;;-146.70;44.06
7474;BME280;3778;42.572;23.426;2023-01-19T06:34:06;94574.38;;;-146.70;43.80
7474;BME280;3778;42.572;23.426;2023-01-19T06:36:33;94538.94;;;-146.70;43.85
7474;BME280;3778;42.572;23.426;2023-01-19T06:38:59;94582.72;;;-146.70;44.35
7474;BME280;3778;42.572;23.426;2023-01-19T06:41:27;94611.88;;;-146.70;44.46
7474;BME280;3778;42.572;23.426;2023-01-19T06:43:54;94543.13;;;-146.70;43.80
7474;BME280;3778;42.572;23.426;2023-01-19T06:46:21;94486.84;;;-146.70;42.27
7474;BME280;3778;42.572;23.426;2023-01-19T06:48:48;94476.44;;;-146.70;41.58
7474;BME280;3778;42.572;23.426;2023-01-19T06:51:16;94499.34;;;-146.70;42.20
7474;BME280;3778;42.572;23.426;2023-01-19T06:53:43;94491.03;;;-146.70;41.42
7474;BME280;3778;42.572;23.426;2023-01-19T06:56:09;94453.50;;;-146.70;39.63
7474;BME280;3778;42.572;23.426;2023-01-19T06:58:36;94359.75;;;-146.70;38.56
7474;BME280;3778;42.572;23.426;2023-01-19T07:01:04;94303.47;;;-146.70;37.68
7474;BME280;3778;42.572;23.426;2023-01-19T07:03:31;94307.66;;;-146.70;37.58
7474;BME280;3778;42.572;23.426;2023-01-19T07:05:59;94311.81;;;-146.70;38.30
7474;BME280;3778;42.572;23.426;2023-01-19T07:08:28;94295.13;;;-146.70;37.26
7474;BME280;3778;42.572;23.426;2023-01-19T07:10:58;94259.72;;;-146.70;37.70
7474;BME280;3778;42.572;23.426;2023-01-19T07:13:25;94290.97;;;-146.70;36.54
7474;BME280;3778;42.572;23.426;2023-01-19T07:15:52;94190.94;;;-146.70;35.74
7474;BME280;3778;42.572;23.426;2023-01-19T07:18:19;94145.09;;;-146.70;35.31
7474;BME280;3778;42.572;23.426;2023-01-19T07:20:46;94151.38;;;-146.70;35.32
7474;BME280;3778;42.572;23.426;2023-01-19T07:23:13;94149.28;;;-146.70;36.11
7474;BME280;3778;42.572;23.426;2023-01-19T07:25:43;94140.94;;;-146.70;35.66
7474;BME280;3778;42.572;23.426;2023-01-19T07:28:10;94103.44;;;-146.70;34.83
7474;BME280;3778;42.572;23.426;2023-01-19T07:30:40;94103.44;;;-146.70;34.95
7474;BME280;3778;42.572;23.426;2023-01-19T07:33:06;94095.09;;;-146.70;34.94
7474;BME280;3778;42.572;23.426;2023-01-19T07:35:33;94057.59;;;-146.70;34.28
7474;BME280;3778;42.572;23.426;2023-01-19T07:38:00;94003.41;;;-146.70;33.91
7474;BME280;3778;42.572;23.426;2023-01-19T07:40:26;94024.25;;;-146.70;34.75
7474;BME280;3778;42.572;23.426;2023-01-19T07:42:54;93972.16;;;-146.70;34.28
7474;BME280;3778;42.572;23.426;2023-01-19T07:45:21;93986.75;;;-146.70;33.21
7474;BME280;3778;42.572;23.426;2023-01-19T07:47:48;93953.41;;;-146.70;32.95
7474;BME280;3778;42.572;23.426;2023-01-19T07:50:16;93920.06;;;-146.70;33.11
7474;BME280;3778;42.572;23.426;2023-01-19T07:52:46;93930.50;;;-146.70;32.79
7474;BME280;3778;42.572;23.426;2023-01-19T07:55:15;93907.56;;;-146.70;32.65
7474;BME280;3778;42.572;23.426;2023-01-19T07:57:41;93895.06;;;-146.70;31.91
7474;BME280;3778;42.572;23.426;2023-01-19T08:00:10;93897.16;;;-146.70;31.73
7474;BME280;3778;42.572;23.426;2023-01-19T08:02:38;93899.25;;;-146.70;31.60
7474;BME280;3778;42.572;23.426;2023-01-19T08:05:05;93886.75;;;-146.70;32.00
7474;BME280;3778;42.572;23.426;2023-01-19T08:07:32;93868.00;;;-146.70;31.99
7474;BME280;3778;42.572;23.426;2023-01-19T08:09:59;93872.16;;;-146.70;31.53
7474;BME280;3778;42.572;23.426;2023-01-19T08:12:26;93834.66;;;-146.70;31.78
7474;BME280;3778;42.572;23.426;2023-01-19T08:14:52;93811.72;;;-146.70;31.16
7474;BME280;3778;42.572;23.426;2023-01-19T08:17:20;93809.66;;;-146.70;30.89
7474;BME280;3778;42.572;23.426;2023-01-19T08:19:47;93797.16;;;-146.70;31.48
7474;BME280;3778;42.572;23.426;2023-01-19T08:22:14;93770.06;;;-146.70;31.10
7474;BME280;3778;42.572;23.426;2023-01-19T08:24:40;93784.66;;;-146.70;31.03
7474;BME280;3778;42.572;23.426;2023-01-19T08:27:07;93780.47;;;-146.70;31.85
7474;BME280;3778;42.572;23.426;2023-01-19T08:29:35;93778.41;;;-146.70;31.20
7474;BME280;3778;42.572;23.426;2023-01-19T08:32:02;93736.72;;;-146.70;30.92
7474;BME280;3778;42.572;23.426;2023-01-19T08:34:30;93763.81;;;-146.70;30.70
7474;BME280;3778;42.572;23.426;2023-01-19T08:36:57;93753.41;;;-146.70;31.26
7474;BME280;3778;42.572;23.426;2023-01-19T08:39:24;93740.88;;;-146.70;30.62
7474;BME280;3778;42.572;23.426;2023-01-19T08:41:52;93755.47;;;-146.70;31.06
7474;BME280;3778;42.572;23.426;2023-01-19T08:44:19;93707.56;;;-146.70;30.87
7474;BME280;3778;42.572;23.426;2023-01-19T08:46:46;93715.88;;;-146.70;30.96
7474;BME280;3778;42.572;23.426;2023-01-19T08:49:13;93688.81;;;-146.70;31.15
7474;BME280;3778;42.572;23.426;2023-01-19T08:51:55;93732.56;;;-146.70;30.97
7474;BME280;3778;42.572;23.426;2023-01-19T08:54:21;93699.22;;;-146.70;30.57
7474;BME280;3778;42.572;23.426;2023-01-19T08:56:48;93688.81;;;-146.70;30.52
7474;BME280;3778;42.572;23.426;2023-01-19T08:59:15;93695.06;;;-146.70;31.07
7474;BME280;3778;42.572;23.426;2023-01-19T09:01:42;93680.47;;;-146.70;30.78
7474;BME280;3778;42.572;23.426;2023-01-19T13:12:24;93790.91;;;-146.70;32.71
7474;BME280;3778;42.572;23.426;2023-01-19T13:15:26;93753.41;;;-146.70;32.45
7474;BME280;3778;42.572;23.426;2023-01-19T13:17:53;93765.88;;;-146.70;32.25
7474;BME280;3778;42.572;23.426;2023-01-19T13:20:26;93778.41;;;-146.70;32.25
7474;BME280;3778;42.572;23.426;2023-01-19T13:23:19;93790.91;;;-146.70;32.11
7474;BME280;3778;42.572;23.426;2023-01-19T13:25:52;93811.72;;;-146.70;32.39
7474;BME280;3778;42.572;23.426;2023-01-19T13:28:27;93790.91;;;-146.70;32.53
7474;BME280;3778;42.572;23.426;2023-01-19T13:30:58;93788.81;;;-146.70;32.58
7474;BME280;3778;42.572;23.426;2023-01-19T13:33:32;93774.22;;;-146.70;32.01
7474;BME280;3778;42.572;23.426;2023-01-19T13:36:02;93774.22;;;-146.70;32.31
7474;BME280;3778;42.572;23.426;2023-01-19T13:38:29;93790.91;;;-146.70;32.34
7474;BME280;3778;42.572;23.426;2023-01-19T13:40:58;93799.22;;;-146.70;32.66
7474;BME280;3778;42.572;23.426;2023-01-19T13:43:31;93784.66;;;-146.70;32.12
7474;BME280;3778;42.572;23.426;2023-01-19T13:46:00;93776.31;;;-146.70;31.96
7474;BME280;3778;42.572;23.426;2023-01-19T13:48:28;93817.97;;;-146.70;32.20
7474;BME280;3778;42.572;23.426;2023-01-19T13:50:59;93770.06;;;-146.70;32.33
7474;BME280;3778;42.572;23.426;2023-01-19T13:53:26;93790.91;;;-146.70;32.20
7474;BME280;3778;42.572;23.426;2023-01-19T13:56:22;93782.56;;;-146.70;32.06
7474;BME280;3778;42.572;23.426;2023-01-19T13:59:10;93786.72;;;-146.70;31.82
7474;BME280;3778;42.572;23.426;2023-01-19T14:01:39;93790.91;;;-146.70;32.32
7474;BME280;3778;42.572;23.426;2023-01-19T14:04:14;93780.47;;;-146.70;32.33
7474;BME280;3778;42.572;23.426;2023-01-19T14:06:49;93824.22;;;-146.70;32.41
7474;BME280;3778;42.572;23.426;2023-01-19T14:09:20;93774.22;;;-146.70;32.40
7474;BME280;3778;42.572;23.426;2023-01-19T14:12:04;93765.88;;;-146.70;32.01
7474;BME280;3778;42.572;23.426;2023-01-19T14:14:32;93761.72;;;-146.70;31.99
7474;BME280;3778;42.572;23.426;2023-01-19T14:16:59;93813.81;;;-146.70;33.08
7474;BME280;3778;42.572;23.426;2023-01-19T14:19:26;93832.56;;;-146.70;34.15
7474;BME280;3778;42.572;23.426;2023-01-19T14:21:57;93863.81;;;-146.70;34.33
7474;BME280;3778;42.572;23.426;2023-01-19T14:24:25;93853.41;;;-146.70;33.64
7474;BME280;3778;42.572;23.426;2023-01-19T14:27:07;93874.25;;;-146.70;33.99
7474;BME280;3778;42.572;23.426;2023-01-19T14:29:37;93884.66;;;-146.70;33.85
7474;BME280;3778;42.572;23.426;2023-01-19T14:32:09;93838.81;;;-146.70;33.94
7474;BME280;3778;42.572;23.426;2023-01-19T14:34:38;93811.72;;;-146.70;33.88
7474;BME280;3778;42.572;23.426;2023-01-19T14:37:14;93903.41;;;-146.70;33.85
7474;BME280;3778;42.572;23.426;2023-01-19T14:39:46;93847.16;;;-146.70;33.80
7474;BME280;3778;42.572;23.426;2023-01-19T14:42:16;93882.56;;;-146.70;33.83
7474;BME280;3778;42.572;23.426;2023-01-19T14:44:48;93888.81;;;-146.70;34.20
7474;BME280;3778;42.572;23.426;2023-01-19T14:47:24;93886.75;;;-146.70;33.99
7474;BME280;3778;42.572;23.426;2023-01-19T14:49:53;93874.25;;;-146.70;34.03
7474;BME280;3778;42.572;23.426;2023-01-19T14:52:23;93895.06;;;-146.70;34.48
7474;BME280;3778;42.572;23.426;2023-01-19T14:54:52;93888.81;;;-146.70;34.18
7474;BME280;3778;42.572;23.426;2023-01-19T14:57:19;93888.81;;;-146.70;34.54
7474;BME280;3778;42.572;23.426;2023-01-19T14:59:47;93899.25;;;-146.70;34.65
7474;BME280;3778;42.572;23.426;2023-01-19T15:02:15;93936.75;;;-146.70;36.20
7474;BME280;3778;42.572;23.426;2023-01-19T15:04:43;93959.66;;;-146.70;37.15
7474;BME280;3778;42.572;23.426;2023-01-19T15:07:15;94007.59;;;-146.70;37.63
7474;BME280;3778;42.572;23.426;2023-01-19T15:09:43;94005.50;;;-146.70;37.67
7474;BME280;3778;42.572;23.426;2023-01-19T15:12:10;94020.09;;;-146.70;37.87
7474;BME280;3778;42.572;23.426;2023-01-19T15:14:38;94015.91;;;-146.70;38.27
7474;BME280;3778;42.572;23.426;2023-01-19T15:17:11;94061.75;;;-146.70;38.75
7474;BME280;3778;42.572;23.426;2023-01-19T15:19:41;94045.09;;;-146.70;38.79
7474;BME280;3778;42.572;23.426;2023-01-19T15:22:11;94080.50;;;-146.70;38.95
7474;BME280;3778;42.572;23.426;2023-01-19T15:24:39;94078.44;;;-146.70;38.98
7474;BME280;3778;42.572;23.426;2023-01-19T15:27:09;94057.59;;;-146.70;39.13
7474;BME280;3778;42.572;23.426;2023-01-19T15:29:37;94057.59;;;-146.70;39.04
7474;BME280;3778;42.572;23.426;2023-01-19T15:32:05;94063.84;;;-146.70;39.38
7474;BME280;3778;42.572;23.426;2023-01-19T15:34:36;94103.44;;;-146.70;39.63
7474;BME280;3778;42.572;23.426;2023-01-19T15:37:03;94068.00;;;-146.70;39.85
7474;BME280;3778;42.572;23.426;2023-01-19T15:39:29;94128.44;;;-146.70;39.80
7474;BME280;3778;42.572;23.426;2023-01-19T15:41:56;94143.03;;;-146.70;40.20
7474;BME280;3778;42.572;23.426;2023-01-19T15:44:23;94143.03;;;-146.70;40.24
7474;BME280;3778;42.572;23.426;2023-01-19T15:46:50;94159.69;;;-146.70;40.49
7474;BME280;3778;42.572;23.426;2023-01-19T15:49:16;94122.19;;;-146.70;40.71
7474;BME280;3778;42.572;23.426;2023-01-19T15:51:44;94128.44;;;-146.70;40.44
7474;BME280;3778;42.572;23.426;2023-01-19T15:54:12;94170.13;;;-146.70;40.53
7474;BME280;3778;42.572;23.426;2023-01-19T15:56:39;94140.94;;;-146.70;40.79
7474;BME280;3778;42.572;23.426;2023-01-19T15:59:07;94132.59;;;-146.70;40.52
7474;BME280;3778;42.572;23.426;2023-01-19T16:01:34;94120.09;;;-146.70;40.77
7474;BME280;3778;42.572;23.426;2023-01-19T16:04:02;94111.78;;;-146.70;40.84
7474;BME280;3778;42.572;23.426;2023-01-19T16:06:30;94155.53;;;-146.70;40.64
7474;BME280;3778;42.572;23.426;2023-01-19T16:08:59;94082.59;;;-146.70;40.74
7474;BME280;3778;42.572;23.426;2023-01-19T16:11:29;94143.03;;;-146.70;40.72
7474;BME280;3778;42.572;23.426;2023-01-19T16:13:56;94145.09;;;-146.70;41.50
7474;BME280;3778;42.572;23.426;2023-01-19T16:16:24;94161.78;;;-146.70;44.71
7474;BME280;3778;42.572;23.426;2023-01-19T16:18:52;94197.19;;;-146.70;48.50
7474;BME280;3778;42.572;23.426;2023-01-19T16:21:19;94257.63;;;-146.70;49.48
7474;BME280;3778;42.572;23.426;2023-01-19T16:23:45;94234.72;;;-146.70;49.20
7474;BME280;3778;42.572;23.426;2023-01-19T16:26:25;94268.06;;;-146.70;50.55
7474;BME280;3778;42.572;23.426;2023-01-19T16:28:55;94340.97;;;-146.70;52.04
7474;BME280;3778;42.572;23.426;2023-01-19T16:31:22;94403.50;;;-146.70;54.57
7474;BME280;3778;42.572;23.426;2023-01-19T16:33:49;94416.00;;;-146.70;57.51
7474;BME280;3778;42.572;23.426;2023-01-19T16:36:18;94391.00;;;-146.70;58.32
7474;BME280;3778;42.572;23.426;2023-01-19T16:38:44;94426.41;;;-146.70;62.70
7474;BME280;3778;42.572;23.426;2023-01-19T16:41:11;94436.84;;;-146.70;64.42
7474;BME280;3778;42.572;23.426;2023-01-19T16:43:39;94493.09;;;-146.70;64.25
7474;BME280;3778;42.572;23.426;2023-01-19T16:46:09;94463.94;;;-146.70;65.97
7474;BME280;3778;42.572;23.426;2023-01-19T16:48:42;94532.69;;;-146.70;67.24
7474;BME280;3778;42.572;23.426;2023-01-19T16:51:08;94528.53;;;-146.70;69.72
7474;BME280;3778;42.572;23.426;2023-01-19T16:53:35;94532.69;;;-146.70;70.34
7474;BME280;3778;42.572;23.426;2023-01-19T16:56:04;94538.94;;;-146.70;70.33
7474;BME280;3778;42.572;23.426;2023-01-19T16:58:31;94511.84;;;-146.70;69.34
7474;BME280;3778;42.572;23.426;2023-01-19T17:01:05;94584.78;;;-146.70;70.88
7474;BME280;3778;42.572;23.426;2023-01-19T17:03:32;94566.03;;;-146.70;70.42
7474;BME280;3778;42.572;23.426;2023-01-19T17:05:58;94532.69;;;-146.70;70.31
7474;BME280;3778;42.572;23.426;2023-01-19T17:08:25;94532.69;;;-146.70;68.40